sensor_id;sensor_type;location;lat;lon;timestamp;pressure;altitude;pressure_sealevel;temperature;humidity
62072;BME280;48031;48.542;13.232;2022-11-21T00:00:09;96530.91;;;8.33;nan
62072;BME280;48031;48.542;13.232;2022-11-21T00:04:12;96526.66;;;8.15;nan
62072;BME280;48031;48.542;13.232;2022-11-21T00:08:15;96515.13;;;8.57;nan
62072;BME280;48031;48.542;13.232;2022-11-21T00:12:17;96513.13;;;8.47;nan
62072;BME280;48031;48.542;13.232;2022-11-21T00:16:19;96504.09;;;8.68;nan
62072;BME280;48031;48.542;13.232;2022-11-21T00:20:21;96514.13;;;8.73;nan
62072;BME280;48031;48.542;13.232;2022-11-21T00:24:23;96517.25;;;8.55;nan
62072;BME280;48031;48.542;13.232;2022-11-21T00:28:25;96524.25;;;8.46;nan
62072;BME280;48031;48.542;13.232;2022-11-21T00:32:27;96525.03;;;8.41;nan
62072;BME280;48031;48.542;13.232;2022-11-21T00:36:29;96520.88;;;8.02;nan
62072;BME280;48031;48.542;13.232;2022-11-21T00:40:30;96508.31;;;8.17;nan
62072;BME280;48031;48.542;13.232;2022-11-21T00:44:32;96513.50;;;7.92;nan
62072;BME280;48031;48.542;13.232;2022-11-21T00:48:34;96515.69;;;7.95;nan
62072;BME280;48031;48.542;13.232;2022-11-21T00:52:35;96497.53;;;7.85;nan
62072;BME280;48031;48.542;13.232;2022-11-21T00:56:37;96517.59;;;7.68;nan
62072;BME280;48031;48.542;13.232;2022-11-21T01:00:39;96508.38;;;7.64;nan
62072;BME280;48031;48.542;13.232;2022-11-21T01:04:41;96506.22;;;7.66;nan
62072;BME280;48031;48.542;13.232;2022-11-21T01:08:43;96496.94;;;8.15;nan
62072;BME280;48031;48.542;13.232;2022-11-21T01:12:45;96498.41;;;7.96;nan
62072;BME280;48031;48.542;13.232;2022-11-21T01:16:47;96507.69;;;7.46;nan
62072;BME280;48031;48.542;13.232;2022-11-21T01:20:49;96507.25;;;7.60;nan
62072;BME280;48031;48.542;13.232;2022-11-21T01:24:50;96506.00;;;7.40;nan
62072;BME280;48031;48.542;13.232;2022-11-21T01:28:52;96513.28;;;7.99;nan
62072;BME280;48031;48.542;13.232;2022-11-21T01:32:54;96511.66;;;7.98;nan
62072;BME280;48031;48.542;13.232;2022-11-21T01:36:55;96492.03;;;10.55;nan
62072;BME280;48031;48.542;13.232;2022-11-21T01:40:57;96494.19;;;11.37;nan
62072;BME280;48031;48.542;13.232;2022-11-21T01:44:59;96477.28;;;14.27;nan
62072;BME280;48031;48.542;13.232;2022-11-21T01:49:10;61634.44;;;-142.07;100.00
62072;BME280;48031;48.542;13.232;2022-11-21T01:53:13;61634.44;;;-142.07;100.00
62072;BME280;48031;48.542;13.232;2022-11-21T02:01:16;61634.44;;;-142.07;100.00
62072;BME280;48031;48.542;13.232;2022-11-21T02:05:22;61634.44;;;-142.07;100.00
62072;BME280;48031;48.542;13.232;2022-11-21T02:09:26;61634.44;;;-142.07;100.00
62072;BME280;48031;48.542;13.232;2022-11-21T02:13:30;61634.44;;;-142.07;100.00
62072;BME280;48031;48.542;13.232;2022-11-21T02:17:31;61634.44;;;-142.07;100.00
62072;BME280;48031;48.542;13.232;2022-11-21T02:25:42;61634.44;;;-142.07;100.00
62072;BME280;48031;48.542;13.232;2022-11-21T02:29:43;61634.44;;;-142.07;100.00
62072;BME280;48031;48.542;13.232;2022-11-21T02:33:45;61634.44;;;-142.07;100.00
62072;BME280;48031;48.542;13.232;2022-11-21T02:37:52;61634.44;;;-142.07;100.00
62072;BME280;48031;48.542;13.232;2022-11-21T02:46:02;61634.44;;;-142.07;100.00
62072;BME280;48031;48.542;13.232;2022-11-21T02:50:11;61634.44;;;-142.07;100.00
62072;BME280;48031;48.542;13.232;2022-11-21T02:54:13;61634.44;;;-142.07;100.00
62072;BME280;48031;48.542;13.232;2022-11-21T02:58:15;61634.44;;;-142.07;100.00
62072;BME280;48031;48.542;13.232;2022-11-21T03:02:17;61634.44;;;-142.07;100.00
62072;BME280;48031;48.542;13.232;2022-11-21T03:06:19;61634.44;;;-142.07;100.00
62072;BME280;48031;48.542;13.232;2022-11-21T03:10:21;61634.44;;;-142.07;100.00
62072;BME280;48031;48.542;13.232;2022-11-21T03:14:23;61634.44;;;-142.07;100.00
62072;BME280;48031;48.542;13.232;2022-11-21T03:18:24;61634.44;;;-142.07;100.00
62072;BME280;48031;48.542;13.232;2022-11-21T03:22:26;61634.44;;;-142.07;100.00
62072;BME280;48031;48.542;13.232;2022-11-21T03:26:28;61634.44;;;-142.07;100.00
62072;BME280;48031;48.542;13.232;2022-11-21T03:30:30;61634.44;;;-142.07;100.00
62072;BME280;48031;48.542;13.232;2022-11-21T03:34:33;61634.44;;;-142.07;100.00
62072;BME280;48031;48.542;13.232;2022-11-21T03:38:34;61634.44;;;-142.07;100.00
62072;BME280;48031;48.542;13.232;2022-11-21T03:42:36;61634.44;;;-142.07;100.00
62072;BME280;48031;48.542;13.232;2022-11-21T03:46:41;61634.44;;;-142.07;100.00
62072;BME280;48031;48.542;13.232;2022-11-21T03:50:43;61634.44;;;-142.07;100.00
62072;BME280;48031;48.542;13.232;2022-11-21T03:54:45;96441.63;;;11.13;nan
62072;BME280;48031;48.542;13.232;2022-11-21T03:58:47;96457.13;;;7.69;nan
62072;BME280;48031;48.542;13.232;2022-11-21T04:02:48;96451.63;;;7.32;nan
62072;BME280;48031;48.542;13.232;2022-11-21T04:06:50;96442.41;;;7.28;nan
62072;BME280;48031;48.542;13.232;2022-11-21T04:10:53;96435.63;;;7.25;nan
62072;BME280;48031;48.542;13.232;2022-11-21T04:14:54;96429.97;;;7.00;nan
62072;BME280;48031;48.542;13.232;2022-11-21T04:18:56;96424.69;;;7.10;nan
62072;BME280;48031;48.542;13.232;2022-11-21T04:22:58;96415.47;;;7.33;nan
62072;BME280;48031;48.542;13.232;2022-11-21T04:27:00;96398.44;;;7.00;nan
62072;BME280;48031;48.542;13.232;2022-11-21T04:31:06;96390.94;;;7.66;nan
62072;BME280;48031;48.542;13.232;2022-11-21T04:35:11;96391.91;;;7.23;nan
62072;BME280;48031;48.542;13.232;2022-11-21T04:39:13;96389.50;;;7.59;nan
62072;BME280;48031;48.542;13.232;2022-11-21T04:43:14;96383.19;;;7.16;nan
62072;BME280;48031;48.542;13.232;2022-11-21T04:47:16;96382.63;;;6.87;nan
62072;BME280;48031;48.542;13.232;2022-11-21T04:51:18;96375.31;;;6.83;nan
62072;BME280;48031;48.542;13.232;2022-11-21T04:55:21;96375.69;;;7.18;nan
62072;BME280;48031;48.542;13.232;2022-11-21T04:59:23;96376.53;;;6.97;nan
62072;BME280;48031;48.542;13.232;2022-11-21T05:03:25;96372.84;;;7.35;nan
62072;BME280;48031;48.542;13.232;2022-11-21T05:07:27;96375.06;;;7.43;nan
62072;BME280;48031;48.542;13.232;2022-11-21T05:11:28;96377.94;;;7.31;nan
62072;BME280;48031;48.542;13.232;2022-11-21T05:15:55;96358.59;;;8.18;nan
62072;BME280;48031;48.542;13.232;2022-11-21T05:19:57;96364.34;;;7.53;nan
62072;BME280;48031;48.542;13.232;2022-11-21T05:23:59;96352.84;;;7.63;nan
62072;BME280;48031;48.542;13.232;2022-11-21T05:28:01;96356.72;;;7.82;nan
62072;BME280;48031;48.542;13.232;2022-11-21T05:32:03;96349.94;;;7.74;nan
62072;BME280;48031;48.542;13.232;2022-11-21T05:36:05;96351.50;;;8.07;nan
62072;BME280;48031;48.542;13.232;2022-11-21T05:40:07;96353.44;;;8.17;nan
62072;BME280;48031;48.542;13.232;2022-11-21T05:44:08;96343.03;;;8.36;nan
62072;BME280;48031;48.542;13.232;2022-11-21T05:48:10;96349.06;;;8.58;nan
62072;BME280;48031;48.542;13.232;2022-11-21T05:52:12;96345.28;;;8.07;nan
62072;BME280;48031;48.542;13.232;2022-11-21T05:56:16;96332.72;;;9.35;nan
62072;BME280;48031;48.542;13.232;2022-11-21T06:00:18;96341.56;;;8.80;nan
62072;BME280;48031;48.542;13.232;2022-11-21T06:04:20;96336.19;;;9.05;nan
62072;BME280;48031;48.542;13.232;2022-11-21T06:08:21;96332.28;;;8.61;nan
62072;BME280;48031;48.542;13.232;2022-11-21T06:12:23;96331.56;;;8.91;nan
62072;BME280;48031;48.542;13.232;2022-11-21T06:16:26;96329.09;;;8.74;nan
62072;BME280;48031;48.542;13.232;2022-11-21T06:20:28;96329.59;;;8.66;nan
62072;BME280;48031;48.542;13.232;2022-11-21T06:24:29;96331.81;;;8.17;nan
62072;BME280;48031;48.542;13.232;2022-11-21T06:28:34;96328.78;;;8.60;nan
62072;BME280;48031;48.542;13.232;2022-11-21T06:32:36;96326.25;;;8.39;nan
62072;BME280;48031;48.542;13.232;2022-11-21T06:36:38;96333.22;;;8.24;nan
62072;BME280;48031;48.542;13.232;2022-11-21T06:40:40;96341.13;;;7.89;nan
62072;BME280;48031;48.542;13.232;2022-11-21T06:44:42;96329.03;;;8.64;nan
62072;BME280;48031;48.542;13.232;2022-11-21T06:48:44;96333.56;;;8.38;nan
62072;BME280;48031;48.542;13.232;2022-11-21T06:52:46;96342.63;;;8.74;nan
62072;BME280;48031;48.542;13.232;2022-11-21T06:56:51;96372.66;;;8.25;nan
62072;BME280;48031;48.542;13.232;2022-11-21T07:00:52;96357.13;;;8.48;nan
62072;BME280;48031;48.542;13.232;2022-11-21T07:04:54;96355.50;;;8.47;nan
62072;BME280;48031;48.542;13.232;2022-11-21T07:08:56;96357.88;;;8.33;nan
62072;BME280;48031;48.542;13.232;2022-11-21T07:13:18;96365.75;;;7.98;nan
62072;BME280;48031;48.542;13.232;2022-11-21T07:17:22;96367.63;;;9.72;nan
62072;BME280;48031;48.542;13.232;2022-11-21T07:21:24;96373.44;;;8.73;nan
62072;BME280;48031;48.542;13.232;2022-11-21T07:25:26;96392.88;;;8.13;nan
62072;BME280;48031;48.542;13.232;2022-11-21T07:29:32;96370.75;;;8.73;nan
62072;BME280;48031;48.542;13.232;2022-11-21T07:33:34;96372.94;;;8.24;nan
62072;BME280;48031;48.542;13.232;2022-11-21T07:37:38;96379.25;;;8.40;nan
62072;BME280;48031;48.542;13.232;2022-11-21T07:41:40;96374.63;;;7.93;nan
62072;BME280;48031;48.542;13.232;2022-11-21T07:45:42;96356.72;;;10.33;nan
62072;BME280;48031;48.542;13.232;2022-11-21T07:49:44;96354.84;;;18.32;nan
62072;BME280;48031;48.542;13.232;2022-11-21T07:53:45;96383.84;;;9.22;nan
62072;BME280;48031;48.542;13.232;2022-11-21T07:57:56;96386.31;;;9.43;nan
62072;BME280;48031;48.542;13.232;2022-11-21T08:01:58;96381.63;;;8.93;nan
62072;BME280;48031;48.542;13.232;2022-11-21T08:06:01;96386.19;;;8.88;nan
62072;BME280;48031;48.542;13.232;2022-11-21T08:10:04;96388.50;;;8.49;nan
62072;BME280;48031;48.542;13.232;2022-11-21T08:14:06;96402.22;;;8.37;nan
62072;BME280;48031;48.542;13.232;2022-11-21T08:18:12;96399.47;;;8.89;nan
62072;BME280;48031;48.542;13.232;2022-11-21T08:22:14;96392.41;;;8.78;nan
62072;BME280;48031;48.542;13.232;2022-11-21T08:26:16;96396.78;;;8.94;nan
62072;BME280;48031;48.542;13.232;2022-11-21T08:30:18;96401.88;;;8.81;nan
62072;BME280;48031;48.542;13.232;2022-11-21T08:34:20;96402.13;;;8.74;nan
62072;BME280;48031;48.542;13.232;2022-11-21T08:38:22;96387.63;;;9.15;nan
62072;BME280;48031;48.542;13.232;2022-11-21T08:42:24;96398.38;;;8.80;nan
62072;BME280;48031;48.542;13.232;2022-11-21T08:46:26;96396.72;;;8.69;nan
62072;BME280;48031;48.542;13.232;2022-11-21T08:50:28;96398.75;;;9.19;nan
62072;BME280;48031;48.542;13.232;2022-11-21T08:54:30;96405.56;;;9.72;nan
62072;BME280;48031;48.542;13.232;2022-11-21T08:58:32;96404.47;;;9.48;nan
62072;BME280;48031;48.542;13.232;2022-11-21T09:02:35;96408.81;;;9.59;nan
62072;BME280;48031;48.542;13.232;2022-11-21T09:06:36;96407.75;;;9.85;nan
62072;BME280;48031;48.542;13.232;2022-11-21T09:10:38;96414.78;;;9.86;nan
62072;BME280;48031;48.542;13.232;2022-11-21T09:14:40;96426.66;;;10.46;nan
62072;BME280;48031;48.542;13.232;2022-11-21T09:19:00;96409.34;;;10.27;nan
62072;BME280;48031;48.542;13.232;2022-11-21T09:23:10;96416.13;;;11.09;nan
62072;BME280;48031;48.542;13.232;2022-11-21T09:27:12;96422.63;;;10.33;nan
62072;BME280;48031;48.542;13.232;2022-11-21T09:31:14;96421.84;;;10.18;nan
62072;BME280;48031;48.542;13.232;2022-11-21T09:35:16;96424.50;;;11.61;nan
62072;BME280;48031;48.542;13.232;2022-11-21T09:39:19;96435.28;;;11.27;nan
62072;BME280;48031;48.542;13.232;2022-11-21T09:43:44;96428.75;;;11.34;nan
62072;BME280;48031;48.542;13.232;2022-11-21T09:47:56;96439.06;;;10.72;nan
62072;BME280;48031;48.542;13.232;2022-11-21T09:51:58;96442.59;;;11.32;nan
62072;BME280;48031;48.542;13.232;2022-11-21T09:56:10;96427.72;;;12.07;nan
62072;BME280;48031;48.542;13.232;2022-11-21T10:00:22;96435.69;;;11.55;nan
62072;BME280;48031;48.542;13.232;2022-11-21T10:04:25;96424.28;;;11.53;nan
62072;BME280;48031;48.542;13.232;2022-11-21T10:08:38;96426.75;;;11.88;nan
62072;BME280;48031;48.542;13.232;2022-11-21T10:17:18;96427.66;;;12.13;nan
62072;BME280;48031;48.542;13.232;2022-11-21T10:25:27;96423.63;;;11.27;nan
62072;BME280;48031;48.542;13.232;2022-11-21T10:29:48;96419.59;;;12.02;nan
62072;BME280;48031;48.542;13.232;2022-11-21T10:33:51;96418.41;;;11.80;nan
62072;BME280;48031;48.542;13.232;2022-11-21T10:37:59;96412.50;;;11.23;nan
62072;BME280;48031;48.542;13.232;2022-11-21T10:42:15;96419.13;;;11.51;nan
62072;BME280;48031;48.542;13.232;2022-11-21T10:46:24;96416.88;;;11.63;nan
62072;BME280;48031;48.542;13.232;2022-11-21T10:55:10;96403.84;;;11.16;nan
62072;BME280;48031;48.542;13.232;2022-11-21T10:59:23;96390.50;;;11.64;nan
62072;BME280;48031;48.542;13.232;2022-11-21T11:03:31;96393.66;;;11.37;nan
62072;BME280;48031;48.542;13.232;2022-11-21T11:07:33;96379.56;;;11.35;nan
62072;BME280;48031;48.542;13.232;2022-11-21T11:11:35;96387.38;;;11.03;nan
62072;BME280;48031;48.542;13.232;2022-11-21T11:15:51;96389.41;;;11.65;nan
62072;BME280;48031;48.542;13.232;2022-11-21T11:20:05;96366.84;;;12.03;nan
62072;BME280;48031;48.542;13.232;2022-11-21T11:28:12;96355.72;;;12.71;nan
62072;BME280;48031;48.542;13.232;2022-11-21T11:32:16;96341.31;;;13.51;nan
62072;BME280;48031;48.542;13.232;2022-11-21T11:41:13;96353.47;;;13.58;nan
62072;BME280;48031;48.542;13.232;2022-11-21T11:45:33;96344.34;;;14.28;nan
62072;BME280;48031;48.542;13.232;2022-11-21T11:50:32;96326.56;;;16.94;nan
62072;BME280;48031;48.542;13.232;2022-11-21T11:54:47;96357.22;;;15.45;nan
62072;BME280;48031;48.542;13.232;2022-11-21T12:07:46;96355.91;;;15.78;nan
62072;BME280;48031;48.542;13.232;2022-11-21T12:12:19;96336.22;;;14.41;nan
62072;BME280;48031;48.542;13.232;2022-11-21T12:16:25;96337.22;;;13.67;nan
62072;BME280;48031;48.542;13.232;2022-11-21T12:20:38;96338.56;;;12.52;nan
62072;BME280;48031;48.542;13.232;2022-11-21T12:24:42;96326.59;;;12.72;nan
62072;BME280;48031;48.542;13.232;2022-11-21T12:32:58;96318.16;;;12.92;nan
62072;BME280;48031;48.542;13.232;2022-11-21T12:45:50;96297.59;;;14.48;nan
62072;BME280;48031;48.542;13.232;2022-11-21T12:50:15;96295.41;;;14.18;nan
62072;BME280;48031;48.542;13.232;2022-11-21T12:58:53;96261.31;;;20.36;nan
62072;BME280;48031;48.542;13.232;2022-11-21T13:03:22;96259.44;;;23.15;nan
62072;BME280;48031;48.542;13.232;2022-11-21T13:07:30;96274.59;;;15.70;nan
62072;BME280;48031;48.542;13.232;2022-11-21T13:11:42;96268.59;;;15.60;nan
62072;BME280;48031;48.542;13.232;2022-11-21T13:16:09;96261.75;;;14.63;nan
62072;BME280;48031;48.542;13.232;2022-11-21T13:20:30;96256.63;;;13.28;nan
62072;BME280;48031;48.542;13.232;2022-11-21T13:28:45;96259.47;;;12.62;nan
62072;BME280;48031;48.542;13.232;2022-11-21T13:32:52;96258.53;;;12.72;nan
62072;BME280;48031;48.542;13.232;2022-11-21T13:36:54;96265.28;;;12.56;nan
62072;BME280;48031;48.542;13.232;2022-11-21T13:40:56;96258.59;;;12.67;nan
62072;BME280;48031;48.542;13.232;2022-11-21T13:45:37;96251.47;;;13.59;nan
62072;BME280;48031;48.542;13.232;2022-11-21T14:02:32;96247.03;;;15.22;nan
62072;BME280;48031;48.542;13.232;2022-11-21T14:06:44;96236.34;;;15.12;nan
62072;BME280;48031;48.542;13.232;2022-11-21T14:10:47;96234.56;;;14.94;nan
62072;BME280;48031;48.542;13.232;2022-11-21T14:15:06;96232.66;;;14.59;nan
62072;BME280;48031;48.542;13.232;2022-11-21T14:19:13;96239.03;;;14.54;nan
62072;BME280;48031;48.542;13.232;2022-11-21T14:23:21;96227.44;;;13.61;nan
62072;BME280;48031;48.542;13.232;2022-11-21T14:27:31;96231.31;;;13.88;nan
62072;BME280;48031;48.542;13.232;2022-11-21T14:31:44;96221.81;;;13.25;nan
62072;BME280;48031;48.542;13.232;2022-11-21T14:35:51;96218.63;;;13.00;nan
62072;BME280;48031;48.542;13.232;2022-11-21T14:39:54;96215.44;;;13.30;nan
62072;BME280;48031;48.542;13.232;2022-11-21T14:47:59;96208.69;;;14.14;nan
62072;BME280;48031;48.542;13.232;2022-11-21T14:52:16;96200.50;;;14.91;nan
62072;BME280;48031;48.542;13.232;2022-11-21T14:56:25;96197.31;;;14.62;nan
62072;BME280;48031;48.542;13.232;2022-11-21T15:00:28;96187.03;;;14.59;nan
62072;BME280;48031;48.542;13.232;2022-11-21T15:04:52;96189.81;;;15.26;nan
62072;BME280;48031;48.542;13.232;2022-11-21T15:08:55;96176.34;;;14.71;nan
62072;BME280;48031;48.542;13.232;2022-11-21T15:13:18;96178.53;;;12.86;nan
62072;BME280;48031;48.542;13.232;2022-11-21T15:17:21;96173.50;;;12.42;nan
62072;BME280;48031;48.542;13.232;2022-11-21T15:21:25;96165.94;;;11.97;nan
62072;BME280;48031;48.542;13.232;2022-11-21T15:25:29;96163.44;;;11.77;nan
62072;BME280;48031;48.542;13.232;2022-11-21T15:29:31;96163.44;;;11.24;nan
62072;BME280;48031;48.542;13.232;2022-11-21T15:33:53;96156.72;;;11.69;nan
62072;BME280;48031;48.542;13.232;2022-11-21T15:38:40;96154.50;;;11.47;nan
62072;BME280;48031;48.542;13.232;2022-11-21T15:42:42;96161.94;;;10.40;nan
62072;BME280;48031;48.542;13.232;2022-11-21T15:46:44;96164.41;;;10.36;nan
62072;BME280;48031;48.542;13.232;2022-11-21T15:50:47;96154.56;;;10.01;nan
62072;BME280;48031;48.542;13.232;2022-11-21T15:54:49;96148.06;;;9.92;nan
62072;BME280;48031;48.542;13.232;2022-11-21T15:58:51;96141.63;;;9.83;nan
62072;BME280;48031;48.542;13.232;2022-11-21T16:02:53;96144.56;;;9.87;nan
62072;BME280;48031;48.542;13.232;2022-11-21T16:06:55;96133.03;;;9.61;nan
62072;BME280;48031;48.542;13.232;2022-11-21T16:10:56;96115.28;;;9.35;nan
62072;BME280;48031;48.542;13.232;2022-11-21T16:14:58;96115.00;;;9.31;nan
62072;BME280;48031;48.542;13.232;2022-11-21T16:19:00;96106.00;;;9.51;nan
62072;BME280;48031;48.542;13.232;2022-11-21T16:23:02;96109.53;;;9.51;nan
62072;BME280;48031;48.542;13.232;2022-11-21T16:27:04;96090.91;;;9.30;nan
62072;BME280;48031;48.542;13.232;2022-11-21T16:31:06;96085.97;;;9.47;nan
62072;BME280;48031;48.542;13.232;2022-11-21T16:35:08;96074.22;;;8.87;nan
62072;BME280;48031;48.542;13.232;2022-11-21T16:39:09;96066.09;;;9.07;nan
62072;BME280;48031;48.542;13.232;2022-11-21T16:43:18;96073.09;;;9.03;nan
62072;BME280;48031;48.542;13.232;2022-11-21T16:47:20;96063.19;;;8.68;nan
62072;BME280;48031;48.542;13.232;2022-11-21T16:51:21;96064.00;;;8.49;nan
62072;BME280;48031;48.542;13.232;2022-11-21T16:55:24;96076.84;;;9.23;nan
62072;BME280;48031;48.542;13.232;2022-11-21T16:59:26;96077.50;;;8.89;nan
62072;BME280;48031;48.542;13.232;2022-11-21T17:03:28;96076.38;;;9.00;nan
62072;BME280;48031;48.542;13.232;2022-11-21T17:07:30;96074.41;;;9.26;nan
62072;BME280;48031;48.542;13.232;2022-11-21T17:11:32;96062.38;;;8.73;nan
62072;BME280;48031;48.542;13.232;2022-11-21T17:15:34;96064.50;;;8.15;nan
62072;BME280;48031;48.542;13.232;2022-11-21T17:19:36;96061.56;;;8.67;nan
62072;BME280;48031;48.542;13.232;2022-11-21T17:23:39;96055.00;;;8.94;nan
62072;BME280;48031;48.542;13.232;2022-11-21T17:27:41;96054.00;;;8.74;nan
62072;BME280;48031;48.542;13.232;2022-11-21T17:31:43;96039.94;;;8.67;nan
62072;BME280;48031;48.542;13.232;2022-11-21T17:35:45;96033.94;;;8.75;nan
62072;BME280;48031;48.542;13.232;2022-11-21T17:39:47;96012.13;;;8.47;nan
62072;BME280;48031;48.542;13.232;2022-11-21T17:43:52;96015.81;;;8.76;nan
62072;BME280;48031;48.542;13.232;2022-11-21T17:47:54;96006.94;;;8.25;nan
62072;BME280;48031;48.542;13.232;2022-11-21T17:51:56;96015.06;;;8.15;nan
62072;BME280;48031;48.542;13.232;2022-11-21T17:55:59;96009.88;;;8.64;nan
62072;BME280;48031;48.542;13.232;2022-11-21T18:00:02;95995.34;;;8.09;nan
62072;BME280;48031;48.542;13.232;2022-11-21T18:04:05;95984.78;;;7.92;nan
62072;BME280;48031;48.542;13.232;2022-11-21T18:08:15;95982.91;;;7.83;nan
62072;BME280;48031;48.542;13.232;2022-11-21T18:12:17;95986.16;;;7.85;nan
62072;BME280;48031;48.542;13.232;2022-11-21T18:16:21;95983.44;;;8.25;nan
62072;BME280;48031;48.542;13.232;2022-11-21T18:20:23;95970.78;;;7.90;nan
62072;BME280;48031;48.542;13.232;2022-11-21T18:24:26;95975.91;;;8.02;nan
62072;BME280;48031;48.542;13.232;2022-11-21T18:28:29;95962.63;;;7.75;nan
62072;BME280;48031;48.542;13.232;2022-11-21T18:32:31;95957.75;;;7.47;nan
62072;BME280;48031;48.542;13.232;2022-11-21T18:36:35;95940.78;;;7.46;nan
62072;BME280;48031;48.542;13.232;2022-11-21T18:40:37;95939.41;;;7.49;nan
62072;BME280;48031;48.542;13.232;2022-11-21T18:44:39;95934.28;;;7.93;nan
62072;BME280;48031;48.542;13.232;2022-11-21T18:48:41;95915.13;;;7.79;nan
62072;BME280;48031;48.542;13.232;2022-11-21T18:53:03;95915.94;;;7.80;nan
62072;BME280;48031;48.542;13.232;2022-11-21T18:57:05;95914.28;;;8.04;nan
62072;BME280;48031;48.542;13.232;2022-11-21T19:01:17;95916.66;;;8.46;nan
62072;BME280;48031;48.542;13.232;2022-11-21T19:05:20;95913.47;;;8.19;nan
62072;BME280;48031;48.542;13.232;2022-11-21T19:09:21;95911.56;;;8.09;nan
62072;BME280;48031;48.542;13.232;2022-11-21T19:13:30;95908.63;;;7.70;nan
62072;BME280;48031;48.542;13.232;2022-11-21T19:17:32;95904.06;;;7.56;nan
62072;BME280;48031;48.542;13.232;2022-11-21T19:21:35;95894.31;;;8.00;nan
62072;BME280;48031;48.542;13.232;2022-11-21T19:25:37;95888.38;;;7.83;nan
62072;BME280;48031;48.542;13.232;2022-11-21T19:29:38;95878.66;;;7.67;nan
62072;BME280;48031;48.542;13.232;2022-11-21T19:33:40;95870.56;;;7.31;nan
62072;BME280;48031;48.542;13.232;2022-11-21T19:37:43;95876.50;;;7.59;nan
62072;BME280;48031;48.542;13.232;2022-11-21T19:41:47;95870.50;;;8.17;nan
62072;BME280;48031;48.542;13.232;2022-11-21T19:45:49;95855.16;;;7.77;nan
62072;BME280;48031;48.542;13.232;2022-11-21T19:49:58;95855.44;;;7.66;nan
62072;BME280;48031;48.542;13.232;2022-11-21T19:54:04;95845.66;;;8.05;nan
62072;BME280;48031;48.542;13.232;2022-11-21T19:58:06;95853.50;;;7.91;nan
62072;BME280;48031;48.542;13.232;2022-11-21T20:02:18;95851.53;;;8.38;nan
62072;BME280;48031;48.542;13.232;2022-11-21T20:10:27;95833.28;;;7.79;nan
62072;BME280;48031;48.542;13.232;2022-11-21T20:14:29;95818.47;;;7.61;nan
62072;BME280;48031;48.542;13.232;2022-11-21T20:18:30;95822.94;;;8.11;nan
62072;BME280;48031;48.542;13.232;2022-11-21T20:22:32;95820.31;;;7.81;nan
62072;BME280;48031;48.542;13.232;2022-11-21T20:26:34;95814.09;;;7.80;nan
62072;BME280;48031;48.542;13.232;2022-11-21T20:30:36;95805.19;;;7.75;nan
62072;BME280;48031;48.542;13.232;2022-11-21T20:34:38;95811.41;;;7.90;nan
62072;BME280;48031;48.542;13.232;2022-11-21T20:38:40;95793.09;;;7.57;nan
62072;BME280;48031;48.542;13.232;2022-11-21T20:42:42;95791.47;;;7.51;nan
62072;BME280;48031;48.542;13.232;2022-11-21T20:46:44;95784.22;;;7.21;nan
62072;BME280;48031;48.542;13.232;2022-11-21T20:50:53;95776.81;;;7.82;nan
62072;BME280;48031;48.542;13.232;2022-11-21T20:55:14;95769.38;;;7.39;nan
62072;BME280;48031;48.542;13.232;2022-11-21T20:59:16;95757.22;;;7.16;nan
62072;BME280;48031;48.542;13.232;2022-11-21T21:03:18;95750.78;;;7.02;nan
62072;BME280;48031;48.542;13.232;2022-11-21T21:07:20;95742.38;;;7.08;nan
62072;BME280;48031;48.542;13.232;2022-11-21T21:11:23;95738.63;;;7.04;nan
62072;BME280;48031;48.542;13.232;2022-11-21T21:15:45;95723.25;;;6.69;nan
62072;BME280;48031;48.542;13.232;2022-11-21T21:19:47;95709.75;;;7.10;nan
62072;BME280;48031;48.542;13.232;2022-11-21T21:24:00;95700.19;;;7.68;nan
62072;BME280;48031;48.542;13.232;2022-11-21T21:28:02;95703.56;;;6.94;nan
62072;BME280;48031;48.542;13.232;2022-11-21T21:32:04;95703.53;;;7.25;nan
62072;BME280;48031;48.542;13.232;2022-11-21T21:36:10;95698.56;;;7.67;nan
62072;BME280;48031;48.542;13.232;2022-11-21T21:40:15;95689.41;;;7.58;nan
62072;BME280;48031;48.542;13.232;2022-11-21T21:44:17;95676.25;;;7.31;nan
62072;BME280;48031;48.542;13.232;2022-11-21T21:48:19;95678.19;;;7.16;nan
62072;BME280;48031;48.542;13.232;2022-11-21T21:52:21;95681.69;;;7.21;nan
62072;BME280;48031;48.542;13.232;2022-11-21T21:56:23;95677.31;;;7.45;nan
62072;BME280;48031;48.542;13.232;2022-11-21T22:00:25;95672.09;;;7.64;nan
62072;BME280;48031;48.542;13.232;2022-11-21T22:04:27;95667.34;;;7.31;nan
62072;BME280;48031;48.542;13.232;2022-11-21T22:08:31;95662.44;;;7.53;nan
62072;BME280;48031;48.542;13.232;2022-11-21T22:12:33;95653.94;;;7.00;nan
62072;BME280;48031;48.542;13.232;2022-11-21T22:16:35;95649.91;;;6.88;nan
62072;BME280;48031;48.542;13.232;2022-11-21T22:20:36;95644.75;;;7.06;nan
62072;BME280;48031;48.542;13.232;2022-11-21T22:24:38;95631.59;;;6.80;nan
62072;BME280;48031;48.542;13.232;2022-11-21T22:28:40;95626.19;;;6.90;nan
62072;BME280;48031;48.542;13.232;2022-11-21T22:32:45;95620.47;;;7.12;nan
62072;BME280;48031;48.542;13.232;2022-11-21T22:36:46;95621.25;;;7.17;nan
62072;BME280;48031;48.542;13.232;2022-11-21T22:40:48;95611.31;;;7.13;nan
62072;BME280;48031;48.542;13.232;2022-11-21T22:44:50;95608.56;;;7.28;nan
62072;BME280;48031;48.542;13.232;2022-11-21T22:48:52;95597.81;;;7.13;nan
62072;BME280;48031;48.542;13.232;2022-11-21T22:52:54;95587.81;;;7.08;nan
62072;BME280;48031;48.542;13.232;2022-11-21T22:56:56;95586.78;;;6.99;nan
62072;BME280;48031;48.542;13.232;2022-11-21T23:01:03;95590.56;;;6.98;nan
62072;BME280;48031;48.542;13.232;2022-11-21T23:05:05;95607.34;;;6.49;nan
62072;BME280;48031;48.542;13.232;2022-11-21T23:09:07;95612.75;;;6.24;nan
62072;BME280;48031;48.542;13.232;2022-11-21T23:13:09;95607.78;;;5.80;nan
62072;BME280;48031;48.542;13.232;2022-11-21T23:17:10;95600.34;;;6.13;nan
62072;BME280;48031;48.542;13.232;2022-11-21T23:21:13;95589.81;;;6.42;nan